createdAt,value
2022-08-25T00:00:13.094Z,100727.97
2022-08-25T00:02:41.712Z,100723.72
2022-08-25T00:05:26.336Z,100718.44
2022-08-25T00:07:55.644Z,100715.75
2022-08-25T00:10:23.352Z,100713.19
2022-08-25T00:12:51.077Z,100706.56
2022-08-25T00:15:18.824Z,100667.75
2022-08-25T00:17:46.582Z,100723.50
2022-08-25T00:20:14.618Z,100712.84
2022-08-25T00:22:43.705Z,100714.69
2022-08-25T00:25:11.408Z,100719.41
2022-08-25T00:27:39.197Z,100715.00
2022-08-25T00:30:08.528Z,100713.31
2022-08-25T00:32:36.247Z,100720.69
2022-08-25T00:35:04.474Z,100720.84
2022-08-25T00:37:32.273Z,100726.44
2022-08-25T00:40:02.274Z,100726.44
2022-08-25T00:42:30.047Z,100722.19
2022-08-25T00:44:58.187Z,100721.50
2022-08-25T00:47:26.060Z,100658.59
2022-08-25T00:49:55.316Z,100650.94
2022-08-25T00:52:24.262Z,100720.94
2022-08-25T00:54:53.252Z,100674.69
2022-08-25T00:57:33.962Z,100673.66
2022-08-25T01:00:03.064Z,100722.28
2022-08-25T01:02:30.854Z,100726.00
2022-08-25T01:04:58.880Z,100728.88
2022-08-25T01:07:26.608Z,100729.84
2022-08-25T01:09:54.425Z,100728.31
2022-08-25T01:12:23.516Z,100728.31
2022-08-25T01:14:51.238Z,100724.91
2022-08-25T01:17:18.949Z,100727.75
2022-08-25T01:19:46.640Z,100726.94
2022-08-25T01:22:17.358Z,100721.13
2022-08-25T01:24:48.630Z,100736.19
2022-08-25T01:27:16.388Z,100686.91
2022-08-25T01:29:44.130Z,100734.66
2022-08-25T01:32:13.305Z,100723.44
2022-08-25T01:34:42.403Z,100727.88
2022-08-25T01:37:13.360Z,100724.47
2022-08-25T01:39:42.622Z,100724.78
2022-08-25T01:42:29.376Z,100716.66
2022-08-25T01:44:57.568Z,100720.38
2022-08-25T01:47:25.468Z,100713.25
2022-08-25T01:49:53.161Z,100716.25
2022-08-25T01:52:22.380Z,100715.44
2022-08-25T01:54:51.414Z,100714.56
2022-08-25T01:57:19.156Z,100715.75
2022-08-25T01:59:47.522Z,100704.13
2022-08-25T02:02:15.317Z,100657.03
2022-08-25T02:04:46.070Z,100709.78
2022-08-25T02:07:13.805Z,100704.38
2022-08-25T02:09:41.505Z,100705.38
2022-08-25T02:12:11.020Z,100707.22
2022-08-25T02:14:38.772Z,100706.53
2022-08-25T02:17:07.163Z,100706.66
2022-08-25T02:19:34.916Z,100709.53
2022-08-25T02:22:02.703Z,100703.59
2022-08-25T02:24:30.424Z,100576.53
2022-08-25T02:26:58.838Z,100710.69
2022-08-25T02:29:27.888Z,100706.44
2022-08-25T02:31:55.612Z,100706.59
2022-08-25T02:34:23.839Z,100696.75
2022-08-25T02:36:51.569Z,100704.19
2022-08-25T02:39:19.274Z,100699.75
2022-08-25T02:41:46.997Z,100707.34
2022-08-25T02:44:14.698Z,100704.66
2022-08-25T02:46:44.371Z,100699.38
2022-08-25T02:49:12.096Z,100703.22
2022-08-25T02:51:39.815Z,100705.94
2022-08-25T02:54:07.561Z,100700.53
2022-08-25T02:56:35.326Z,100698.84
2022-08-25T02:59:03.060Z,100639.59
2022-08-25T03:01:31.016Z,100705.41
2022-08-25T03:04:00.197Z,100690.63
2022-08-25T03:06:28.562Z,100649.44
2022-08-25T03:08:56.408Z,100657.75
2022-08-25T03:11:26.645Z,100706.19
2022-08-25T03:13:54.440Z,100701.75
2022-08-25T03:16:22.271Z,100699.34
2022-08-25T03:18:50.197Z,100698.53
2022-08-25T03:21:20.460Z,100700.66
2022-08-25T03:23:48.552Z,100688.63
2022-08-25T03:26:34.128Z,100703.38
2022-08-25T03:29:05.024Z,100700.81
2022-08-25T03:31:33.198Z,100706.22
2022-08-25T03:34:01.000Z,100707.25
2022-08-25T03:36:30.143Z,100705.53
2022-08-25T03:38:57.899Z,100705.66
2022-08-25T03:41:29.577Z,100635.91
2022-08-25T03:43:57.630Z,100709.53
2022-08-25T03:46:28.303Z,100704.44
2022-08-25T03:48:56.028Z,100698.63
2022-08-25T03:51:24.280Z,100704.59
2022-08-25T03:53:53.495Z,100701.72
2022-08-25T03:56:21.277Z,100648.72
2022-08-25T03:58:49.537Z,100697.78
2022-08-25T04:01:18.219Z,100699.78
2022-08-25T04:03:46.186Z,100627.59
2022-08-25T04:06:14.042Z,100635.97
2022-08-25T04:08:42.021Z,100693.97
2022-08-25T04:11:11.809Z,100695.53
2022-08-25T04:13:39.554Z,100696.53
2022-08-25T04:16:11.853Z,100630.69
2022-08-25T04:18:39.840Z,100697.38
2022-08-25T04:21:09.136Z,100685.34
2022-08-25T04:23:36.926Z,100693.72
2022-08-25T04:26:11.137Z,100643.34
2022-08-25T04:28:38.925Z,100672.38
2022-08-25T04:31:07.879Z,100677.94
2022-08-25T04:33:35.704Z,100678.09
2022-08-25T04:36:03.456Z,100672.69
2022-08-25T04:38:32.406Z,100682.63
2022-08-25T04:41:00.316Z,100685.78
2022-08-25T04:43:29.402Z,100677.84
2022-08-25T04:45:57.213Z,100657.56
2022-08-25T04:48:24.971Z,100682.22
2022-08-25T04:50:52.672Z,100682.69
2022-08-25T04:53:22.446Z,100685.00
2022-08-25T04:55:50.142Z,100674.34
2022-08-25T04:58:18.007Z,100681.88
2022-08-25T05:00:47.820Z,100682.03
2022-08-25T05:03:15.592Z,100689.56
2022-08-25T05:05:43.310Z,100686.72
2022-08-25T05:08:11.148Z,100684.72
2022-08-25T05:10:40.802Z,100675.09
2022-08-25T05:13:10.156Z,100682.19
2022-08-25T05:15:53.074Z,100674.06
2022-08-25T05:18:23.201Z,100675.91
2022-08-25T05:20:51.301Z,100621.19
2022-08-25T05:23:19.039Z,100674.38
2022-08-25T05:25:46.743Z,100669.28
2022-08-25T05:28:14.842Z,100672.84
2022-08-25T05:30:43.347Z,100673.97
2022-08-25T05:33:11.223Z,100671.69
2022-08-25T05:35:40.291Z,100669.88
2022-08-25T05:38:08.015Z,100678.97
2022-08-25T05:40:43.344Z,100671.84
2022-08-25T05:43:12.374Z,100670.59
2022-08-25T05:45:40.641Z,100657.84
2022-08-25T05:48:08.563Z,100665.94
2022-08-25T05:50:36.270Z,100666.22
2022-08-25T05:53:05.497Z,100665.22
2022-08-25T05:55:33.201Z,100674.03
2022-08-25T05:58:00.952Z,100666.94
2022-08-25T06:00:28.688Z,100668.25
2022-08-25T06:02:55.454Z,100669.84
2022-08-25T06:05:24.001Z,100672.41
2022-08-25T06:07:52.645Z,100669.28
2022-08-25T06:10:22.011Z,100670.22
2022-08-25T06:12:50.160Z,100669.13
2022-08-25T06:15:19.006Z,100667.81
2022-08-25T06:17:46.772Z,100669.22
2022-08-25T06:20:16.756Z,100660.53
2022-08-25T06:22:44.421Z,100669.50
2022-08-25T06:25:12.978Z,100660.97
2022-08-25T06:27:42.062Z,100663.25
2022-08-25T06:30:11.544Z,100663.81
2022-08-25T06:32:40.826Z,100587.34
2022-08-25T06:35:10.513Z,100652.63
2022-08-25T06:37:38.290Z,100659.63
2022-08-25T06:40:06.876Z,100622.19
2022-08-25T06:42:34.863Z,100655.06
2022-08-25T06:45:04.083Z,100637.09
2022-08-25T06:47:32.012Z,100650.66
2022-08-25T06:49:59.733Z,100637.19
2022-08-25T06:52:29.151Z,100641.41
2022-08-25T06:54:57.347Z,100640.75
2022-08-25T06:57:25.077Z,100640.03
2022-08-25T06:59:54.290Z,100639.63
2022-08-25T07:02:23.877Z,100632.66
2022-08-25T07:04:53.527Z,100629.50
2022-08-25T07:07:21.435Z,100615.56
2022-08-25T07:09:49.141Z,100626.22
2022-08-25T07:12:16.865Z,100624.78
2022-08-25T07:14:53.396Z,100585.38
2022-08-25T07:17:32.835Z,100623.38
2022-08-25T07:20:01.216Z,100628.63
2022-08-25T07:22:28.945Z,100625.06
2022-08-25T07:24:56.700Z,100626.31
2022-08-25T07:27:25.846Z,100631.41
2022-08-25T07:29:54.081Z,100631.28
2022-08-25T07:32:21.807Z,100626.28
2022-08-25T07:35:08.513Z,100629.97
2022-08-25T07:37:48.921Z,100637.09
2022-08-25T07:40:18.632Z,100582.31
2022-08-25T07:42:46.647Z,100644.16
2022-08-25T07:45:15.623Z,100525.88
2022-08-25T07:47:48.796Z,100631.31
2022-08-25T07:50:20.931Z,100626.75
2022-08-25T07:52:53.923Z,100574.44
2022-08-25T07:55:23.657Z,100626.53
2022-08-25T07:57:55.923Z,100633.53
2022-08-25T08:00:27.459Z,100631.19
2022-08-25T08:02:55.349Z,100626.34
2022-08-25T08:05:24.538Z,100633.69
2022-08-25T08:07:52.323Z,100631.56
2022-08-25T08:13:08.041Z,100632.38
2022-08-25T08:15:35.894Z,100632.06
2022-08-25T08:18:05.268Z,100632.47
2022-08-25T08:20:42.915Z,100570.06
2022-08-25T08:23:11.162Z,100562.22
2022-08-25T08:25:38.862Z,100614.38
2022-08-25T08:28:07.254Z,100621.56
2022-08-25T08:30:36.520Z,100621.56
2022-08-25T08:33:10.215Z,100623.97
2022-08-25T08:35:41.252Z,100628.06
2022-08-25T08:38:14.733Z,100622.72
2022-08-25T08:41:09.439Z,100606.88
2022-08-25T08:43:37.392Z,100613.00
2022-08-25T08:46:07.502Z,100613.69
2022-08-25T08:48:50.165Z,100593.63
2022-08-25T08:51:23.130Z,100560.75
2022-08-25T08:53:54.076Z,100558.13
2022-08-25T08:56:30.790Z,100547.28
2022-08-25T08:59:05.587Z,100593.94
2022-08-25T09:01:35.160Z,100592.81
2022-08-25T09:04:05.984Z,100563.13
2022-08-25T09:06:38.953Z,100550.41
2022-08-25T09:09:07.099Z,100592.72
2022-08-25T09:11:47.981Z,100589.25
2022-08-25T09:14:30.440Z,100571.47
2022-08-25T09:17:01.138Z,100594.56
2022-08-25T09:19:43.829Z,100584.25
2022-08-25T09:22:34.000Z,100583.25
2022-08-25T09:25:08.919Z,100573.75
2022-08-25T09:27:40.555Z,100596.50
2022-08-25T09:30:10.114Z,100591.09
2022-08-25T09:32:40.545Z,100591.44
2022-08-25T09:35:08.847Z,100592.63
2022-08-25T09:37:37.924Z,100588.91
2022-08-25T09:40:06.539Z,100583.50
2022-08-25T09:42:49.644Z,100574.00
2022-08-25T09:45:17.660Z,100585.56
2022-08-25T09:47:46.603Z,100497.19
2022-08-25T09:50:18.623Z,100483.16
2022-08-25T09:52:47.827Z,100563.72
2022-08-25T09:55:28.634Z,100558.84
2022-08-25T09:57:56.944Z,100560.84
2022-08-25T10:00:27.568Z,100554.28
2022-08-25T10:03:24.868Z,100557.69
2022-08-25T10:06:02.187Z,100550.41
2022-08-25T10:08:36.371Z,100535.84
2022-08-25T10:11:06.499Z,100552.28
2022-08-25T10:13:40.115Z,100515.63
2022-08-25T10:16:18.062Z,100457.00
2022-08-25T10:18:50.777Z,100525.53
2022-08-25T10:21:19.590Z,100522.97
2022-08-25T10:23:49.677Z,100514.00
2022-08-25T10:26:32.019Z,100512.13
2022-08-25T10:29:11.903Z,100462.94
2022-08-25T10:31:42.303Z,100509.25
2022-08-25T10:34:20.726Z,100501.63
2022-08-25T10:36:56.086Z,100495.84
2022-08-25T10:39:34.162Z,100439.72
2022-08-25T10:42:07.758Z,100480.78
2022-08-25T10:44:54.951Z,100477.22
2022-08-25T10:47:58.182Z,100475.19
2022-08-25T10:50:30.391Z,100445.03
2022-08-25T10:53:06.587Z,100461.44
2022-08-25T10:55:43.310Z,100460.44
2022-08-25T10:58:14.871Z,100401.66
2022-08-25T11:00:46.582Z,100452.16
2022-08-25T11:03:21.807Z,100314.75
2022-08-25T11:05:54.891Z,100448.56
2022-08-25T11:08:26.433Z,100406.03
2022-08-25T11:10:59.543Z,100444.66
2022-08-25T11:13:30.179Z,100436.34
2022-08-25T11:16:18.772Z,100440.09
2022-08-25T11:18:53.069Z,100438.94
2022-08-25T11:21:22.880Z,100428.22
2022-08-25T11:23:53.759Z,100426.53
2022-08-25T11:26:31.871Z,100401.13
2022-08-25T11:29:04.099Z,100421.78
2022-08-25T11:31:31.825Z,100424.34
2022-08-25T11:33:59.557Z,100412.81
2022-08-25T11:36:29.877Z,100358.59
2022-08-25T11:39:05.075Z,100360.16
2022-08-25T11:41:37.116Z,100374.88
2022-08-25T11:44:14.044Z,100408.72
2022-08-25T11:46:51.227Z,100402.94
2022-08-25T11:49:44.472Z,100408.56
2022-08-25T11:52:46.007Z,100409.06
2022-08-25T11:55:14.532Z,100400.94
2022-08-25T11:57:43.690Z,100392.44
2022-08-25T12:00:14.713Z,100397.88
2022-08-25T12:02:44.039Z,100400.25
2022-08-25T12:05:36.175Z,100397.34
2022-08-25T12:08:23.403Z,100381.09
2022-08-25T12:10:56.311Z,100383.25
2022-08-25T12:13:40.771Z,100352.75
2022-08-25T12:16:08.920Z,100373.72
2022-08-25T12:18:45.903Z,100368.28
2022-08-25T12:21:16.276Z,100369.97
2022-08-25T12:23:45.286Z,100364.19
2022-08-25T12:26:18.642Z,100368.25
2022-08-25T12:29:07.943Z,100360.94
2022-08-25T12:31:48.271Z,100356.03
2022-08-25T12:34:24.336Z,100353.00
2022-08-25T12:36:58.983Z,100273.97
2022-08-25T12:39:31.016Z,100358.41
2022-08-25T12:44:47.933Z,100364.03
2022-08-25T12:47:31.900Z,100332.00
2022-08-25T12:50:33.531Z,100358.25
2022-08-25T12:53:10.068Z,100350.44
2022-08-25T12:55:38.601Z,100363.84
2022-08-25T12:58:06.610Z,100361.47
2022-08-25T13:00:46.242Z,100360.94
2022-08-25T13:03:34.644Z,100357.72
2022-08-25T13:06:27.200Z,100364.88
2022-08-25T13:09:24.920Z,100361.47
2022-08-25T13:11:54.766Z,100356.59
2022-08-25T13:14:27.264Z,100347.59
2022-08-25T13:16:57.712Z,100347.41
2022-08-25T13:19:25.601Z,100337.41
2022-08-25T13:21:54.745Z,100335.38
2022-08-25T13:24:23.675Z,100312.19
2022-08-25T13:26:53.677Z,100337.56
2022-08-25T13:29:22.582Z,100326.16
2022-08-25T13:32:01.582Z,100319.03
2022-08-25T13:34:34.950Z,100323.81
2022-08-25T13:37:24.156Z,100316.31
2022-08-25T13:39:56.474Z,100316.47
2022-08-25T13:42:29.031Z,100320.69
2022-08-25T13:44:57.193Z,100314.88
2022-08-25T13:47:45.290Z,100309.09
2022-08-25T13:50:22.788Z,100307.41
2022-08-25T13:52:55.268Z,100307.59
2022-08-25T13:55:27.615Z,100309.47
2022-08-25T13:57:57.220Z,100279.88
2022-08-25T14:00:33.079Z,100285.56
2022-08-25T14:03:03.454Z,100299.94
2022-08-25T14:05:40.839Z,100292.81
2022-08-25T14:08:33.243Z,100285.03
2022-08-25T14:11:07.748Z,100290.44
2022-08-25T14:13:44.551Z,100292.81
2022-08-25T14:16:15.173Z,100256.25
2022-08-25T14:18:50.024Z,100237.59
2022-08-25T14:21:17.775Z,100276.81
2022-08-25T14:23:46.892Z,100270.66
2022-08-25T14:26:15.288Z,100272.00
2022-08-25T14:28:44.182Z,100280.09
2022-08-25T14:31:14.918Z,100239.16
2022-08-25T14:33:43.861Z,100270.72
2022-08-25T14:36:20.896Z,100260.16
2022-08-25T14:38:54.513Z,100257.06
2022-08-25T14:41:23.689Z,100259.25
2022-08-25T14:43:51.509Z,100261.59
2022-08-25T14:46:21.374Z,100195.00
2022-08-25T14:48:50.738Z,100249.88
2022-08-25T14:51:19.780Z,100247.47
2022-08-25T14:53:48.159Z,100243.69
2022-08-25T14:56:16.156Z,100228.50
2022-08-25T14:58:48.351Z,100236.41
2022-08-25T15:01:20.197Z,100174.22
2022-08-25T15:03:57.959Z,100182.66
2022-08-25T15:06:27.154Z,100226.69
2022-08-25T15:09:11.209Z,100233.44
2022-08-25T15:11:41.609Z,100219.63
2022-08-25T15:14:10.966Z,100229.56
2022-08-25T15:16:41.288Z,100190.34
2022-08-25T15:19:09.646Z,100236.34
2022-08-25T15:21:39.004Z,100236.53
2022-08-25T15:24:07.197Z,100242.63
2022-08-25T15:26:35.639Z,100235.31
2022-08-25T15:29:04.377Z,100202.25
2022-08-25T15:31:32.119Z,100229.75
2022-08-25T15:34:00.909Z,100229.75
2022-08-25T15:36:29.004Z,100228.25
2022-08-25T15:38:58.150Z,100226.53
2022-08-25T15:41:27.902Z,100228.63
2022-08-25T15:43:55.942Z,100225.22
2022-08-25T15:46:24.992Z,100226.47
2022-08-25T15:48:52.862Z,100220.34
2022-08-25T15:51:20.592Z,100217.16
2022-08-25T15:53:48.569Z,100212.75
2022-08-25T15:56:26.655Z,100203.09
2022-08-25T15:58:55.531Z,100150.44
2022-08-25T16:01:24.962Z,100215.16
2022-08-25T16:03:52.785Z,100214.53
2022-08-25T16:06:20.655Z,100171.47
2022-08-25T16:08:48.662Z,100203.84
2022-08-25T16:11:19.727Z,100191.00
2022-08-25T16:13:49.284Z,100207.38
2022-08-25T16:16:18.401Z,100195.69
2022-08-25T16:18:46.294Z,100196.34
2022-08-25T16:21:19.462Z,100196.16
2022-08-25T16:23:49.405Z,100192.44
2022-08-25T16:26:18.695Z,100189.53
2022-08-25T16:28:46.422Z,100182.88
2022-08-25T16:31:15.181Z,100181.66
2022-08-25T16:36:08.352Z,100144.28
2022-08-25T16:38:36.580Z,100183.56
2022-08-25T16:41:08.805Z,100180.66
2022-08-25T16:43:38.259Z,100183.88
2022-08-25T16:46:07.404Z,100186.59
2022-08-25T16:48:35.129Z,100171.50
2022-08-25T16:51:07.242Z,100174.34
2022-08-25T16:53:53.595Z,100169.78
2022-08-25T16:56:24.805Z,100175.91
2022-08-25T16:58:57.058Z,100178.44
2022-08-25T17:01:25.202Z,100176.56
2022-08-25T17:03:53.119Z,100138.91
2022-08-25T17:06:20.905Z,100183.31
2022-08-25T17:08:50.823Z,100191.91
2022-08-25T17:11:20.262Z,100189.69
2022-08-25T17:13:49.692Z,100194.09
2022-08-25T17:16:19.023Z,100181.72
2022-08-25T17:18:48.112Z,100186.97
2022-08-25T17:21:24.184Z,100185.09
2022-08-25T17:23:53.006Z,100183.41
2022-08-25T17:26:28.098Z,100186.97
2022-08-25T17:28:57.011Z,100189.69
2022-08-25T17:31:28.487Z,100188.66
2022-08-25T17:33:57.825Z,100192.22
2022-08-25T17:36:27.142Z,100186.50
2022-08-25T17:38:55.128Z,100190.06
2022-08-25T17:41:25.015Z,100190.06
2022-08-25T17:43:52.763Z,100191.09
2022-08-25T17:46:21.451Z,100185.00
2022-08-25T17:48:50.648Z,100189.75
2022-08-25T17:51:18.367Z,100193.03
2022-08-25T17:53:46.817Z,100192.56
2022-08-25T17:56:15.859Z,100129.63
2022-08-25T17:58:44.561Z,100192.63
2022-08-25T18:01:16.624Z,100187.56
2022-08-25T18:03:44.518Z,100190.66
2022-08-25T18:06:16.007Z,100198.13
2022-08-25T18:08:44.197Z,100139.25
2022-08-25T18:11:12.179Z,100148.91
2022-08-25T18:13:41.512Z,100200.94
2022-08-25T18:16:09.414Z,100199.41
2022-08-25T18:18:37.280Z,100200.66
2022-08-25T18:21:05.391Z,100206.44
2022-08-25T18:23:36.198Z,100206.63
2022-08-25T18:26:03.889Z,100205.94
2022-08-25T18:28:34.475Z,100205.50
2022-08-25T18:31:03.154Z,100207.53
2022-08-25T18:33:30.936Z,100212.28
2022-08-25T18:35:58.876Z,100155.34
2022-08-25T18:38:44.029Z,100169.56
2022-08-25T18:41:14.470Z,100208.81
2022-08-25T18:43:42.270Z,100207.47
2022-08-25T18:46:10.121Z,100209.31
2022-08-25T18:48:37.922Z,100210.34
2022-08-25T18:51:06.082Z,100144.69
2022-08-25T18:53:49.604Z,100214.44
2022-08-25T18:56:19.316Z,100204.81
2022-08-25T18:58:47.190Z,100204.13
2022-08-25T19:01:15.085Z,100206.19
2022-08-25T19:03:43.200Z,100209.91
2022-08-25T19:06:11.125Z,100202.03
2022-08-25T19:08:41.834Z,100140.88
2022-08-25T19:11:10.115Z,100204.38
2022-08-25T19:13:39.298Z,100213.53
2022-08-25T19:16:11.702Z,100208.28
2022-08-25T19:18:40.051Z,100214.94
2022-08-25T19:21:08.559Z,100213.44
2022-08-25T19:23:38.079Z,100217.16
2022-08-25T19:26:07.895Z,100158.19
2022-08-25T19:28:45.900Z,100222.09
2022-08-25T19:31:16.506Z,100214.97
2022-08-25T19:33:46.433Z,100209.06
2022-08-25T19:36:14.301Z,100215.31
2022-08-25T19:38:42.046Z,100211.28
2022-08-25T19:41:14.695Z,100221.97
2022-08-25T19:43:56.547Z,100225.72
2022-08-25T19:46:25.480Z,100219.59
2022-08-25T19:48:53.251Z,100223.34
2022-08-25T19:51:21.987Z,100226.06
2022-08-25T19:53:54.684Z,100227.59
2022-08-25T19:56:23.472Z,100234.56
2022-08-25T19:58:52.575Z,100233.72
2022-08-25T20:01:23.034Z,100230.31
2022-08-25T20:03:52.143Z,100236.78
2022-08-25T20:06:19.856Z,100236.09
2022-08-25T20:08:47.546Z,100231.72
2022-08-25T20:11:27.020Z,100223.94
2022-08-25T20:13:58.166Z,100226.63
2022-08-25T20:16:28.209Z,100230.38
2022-08-25T20:18:56.009Z,100232.38
2022-08-25T20:21:25.139Z,100228.81
2022-08-25T20:24:10.613Z,100237.13
2022-08-25T20:26:38.440Z,100229.34
2022-08-25T20:29:10.160Z,100236.50
2022-08-25T20:31:37.851Z,100233.94
2022-08-25T20:34:06.584Z,100232.25
2022-08-25T20:36:35.280Z,100237.66
2022-08-25T20:39:04.590Z,100244.28
2022-08-25T20:41:33.871Z,100236.34
2022-08-25T20:44:05.241Z,99977.47
2022-08-25T20:46:34.756Z,100241.94
2022-08-25T20:49:05.970Z,100239.56
2022-08-25T20:51:33.664Z,100243.16
2022-08-25T20:54:01.386Z,100250.44
2022-08-25T20:56:30.079Z,100241.59
2022-08-25T20:58:57.800Z,100238.25
2022-08-25T21:01:37.422Z,100242.63
2022-08-25T21:04:07.281Z,100243.00
2022-08-25T21:06:35.421Z,100251.13
2022-08-25T21:09:03.170Z,100247.72
2022-08-25T21:11:31.135Z,100248.75
2022-08-25T21:13:59.089Z,100244.38
2022-08-25T21:16:27.168Z,100253.50
2022-08-25T21:18:56.740Z,100205.16
2022-08-25T21:21:25.894Z,100251.81
2022-08-25T21:23:53.641Z,100239.66
2022-08-25T21:26:22.841Z,100202.78
2022-08-25T21:28:51.304Z,100243.38
2022-08-25T21:31:20.550Z,100249.81
2022-08-25T21:33:49.891Z,100199.91
2022-08-25T21:36:21.118Z,100244.38
2022-08-25T21:38:50.388Z,100238.28
2022-08-25T21:41:20.753Z,100250.16
2022-08-25T21:43:48.547Z,100243.41
2022-08-25T21:46:17.354Z,100253.06
2022-08-25T21:48:46.590Z,100191.47
2022-08-25T21:51:15.591Z,100248.84
2022-08-25T21:53:43.345Z,100243.59
2022-08-25T21:56:15.949Z,100249.00
2022-08-25T21:58:45.618Z,100245.44
2022-08-25T22:01:19.358Z,100182.00
2022-08-25T22:03:47.427Z,100247.63
2022-08-25T22:06:16.272Z,100246.81
2022-08-25T22:08:44.250Z,100233.44
2022-08-25T22:11:18.068Z,100153.63
2022-08-25T22:13:47.395Z,100173.91
2022-08-25T22:16:21.525Z,100239.03
2022-08-25T22:18:49.709Z,100163.78
2022-08-25T22:21:18.464Z,100241.06
2022-08-25T22:23:46.309Z,100240.38
2022-08-25T22:26:16.286Z,100237.50
2022-08-25T22:28:49.994Z,100228.88
2022-08-25T22:31:20.648Z,100228.88
2022-08-25T22:33:49.256Z,100229.88
2022-08-25T22:36:18.030Z,100225.50
2022-08-25T22:38:46.303Z,100224.78
2022-08-25T22:41:18.858Z,100226.66
2022-08-25T22:43:49.118Z,100224.94
2022-08-25T22:46:17.196Z,100228.88
2022-08-25T22:48:46.141Z,100227.00
2022-08-25T22:51:15.079Z,100174.59
2022-08-25T22:53:43.428Z,100237.34
2022-08-25T22:56:11.598Z,100226.69
2022-08-25T22:58:41.232Z,100225.66
2022-08-25T23:01:13.453Z,100223.09
2022-08-25T23:03:44.656Z,100224.13
2022-08-25T23:06:18.679Z,100226.16
2022-08-25T23:08:48.729Z,100155.00
2022-08-25T23:11:16.642Z,100168.69
2022-08-25T23:13:45.827Z,100222.81
2022-08-25T23:16:13.754Z,100223.97
2022-08-25T23:18:43.939Z,100215.38
2022-08-25T23:21:29.041Z,100224.31
2022-08-25T23:24:03.019Z,100175.28
2022-08-25T23:26:32.862Z,100215.38
2022-08-25T23:29:02.683Z,100220.44
2022-08-25T23:31:31.115Z,100221.97
2022-08-25T23:33:59.128Z,100147.38
2022-08-25T23:36:30.559Z,100214.84
2022-08-25T23:38:58.306Z,100209.59
2022-08-25T23:41:26.292Z,100211.66
2022-08-25T23:43:54.147Z,100199.63
2022-08-25T23:46:24.876Z,100210.81
2022-08-25T23:48:54.834Z,100204.88
2022-08-25T23:51:24.833Z,100207.41
2022-08-25T23:53:54.294Z,100204.06
2022-08-25T23:56:22.267Z,100200.84
2022-08-25T23:58:50.036Z,100201.69
